• Join FlightAware (Why Join?)
  • Login
  • US Flag 
05:56PM EDT


 

Airport Tracker/Info


-or-


 

Live Flight TrackerFlight Track Log ✈ DAL5881 ✈ 26-Apr-2013 ✈ KBOS - KLGA

Flight Track Log - Related Links

Times and Time Zones

All times are in EDT time to prevent confusion due to time zone crossing. See the DAL5881 flight status page for this flight to view local times or setup timezone preferences in your user account.

Time Position Orientation Groundspeed Altitude Reporting Facility
EDT Latitude Longitude Course Direction KTS MPH feet Rate Location/Type
12:11PM 42.3667 -70.9833 270° West 112 129 1,100  Level KA90
12:13PM 42.3908 -70.8097 79° East 212 244 6,300 2,640 Climbing Boston Center
12:14PM 42.2939 -70.7259 228° Southwest  Level FlightAware Approximate
12:14PM 42.3542 -70.7236 120° Southeast 233 268 9,800  Level Boston Center
12:15PM 42.2297 -70.8252 240° Southwest  Level FlightAware Approximate
12:16PM 42.1833 -70.9404 270° West  Level FlightAware Approximate
12:16PM 42.2347 -70.8333 214° Southwest 202 232 15,100  Level Boston Center
12:17PM 42.2136 -70.9656 258° West 278 320 16,000 420 Climbing Boston Center
12:18PM 42.1964 -71.0836 259° West 314 361 16,000  Level Boston Center
12:19PM 42.1808 -71.1933 259° West 314 361 16,000  Level Boston Center
12:20PM 42.1614 -71.3058 257° West 314 361 16,000  Level Boston Center
12:21PM 42.1478 -71.4069 260° West 314 361 16,000  Level Boston Center
12:22PM 42.1300 -71.5275 259° West 314 361 16,000  Level Boston Center
12:23PM 42.1119 -71.6397 258° West 314 361 16,000  Level Boston Center
12:24PM 42.0961 -71.7406 258° West 314 361 16,000  Level Boston Center
12:25PM 42.0781 -71.8639 259° West 314 361 16,000 -60 Level Boston Center
12:26PM 42.0578 -71.9786 257° West 314 361 15,900 -60 Descending Boston Center
12:27PM 42.0414 -72.0739 257° West 314 361 15,900  Level Boston Center
12:28PM 42.0208 -72.1969 257° West 314 361 15,900  Level Boston Center
12:29PM 42.0064 -72.2947 259° West 314 361 15,900  Level Boston Center
12:30PM 41.9856 -72.4178 257° West 309 356 16,000  Climbing Boston Center
12:31PM 41.9689 -72.5211 258° West 314 361 16,000  Level Boston Center
12:32PM 41.9522 -72.6186 257° West 314 361 16,000  Level Boston Center
12:33PM 41.9206 -72.7386 251° West 314 361 16,000 -180 Level Boston Center
12:34PM 41.8786 -72.8389 241° Southwest 314 361 15,700 -480 Descending Boston Center
12:35PM 41.8367 -72.9389 241° Southwest 314 361 15,100 -600 Descending Boston Center
12:36PM 41.7944 -73.0472 242° Southwest 309 356 14,500 -540 Descending Boston Center
12:37PM 41.7564 -73.1358 240° Southwest 309 356 14,100 -300 Descending Boston Center
12:38PM 41.7119 -73.2439 241° Southwest 304 350 14,000 -60 Descending Boston Center
12:39PM 41.6736 -73.3294 239° Southwest 309 356 14,000 -240 Level Boston Center
12:40PM 41.6311 -73.4261 240° Southwest 304 350 13,600 -660 Descending Boston Center
12:41PM 41.5864 -73.5336 241° Southwest 304 350 12,700 -840 Descending Boston Center
12:42PM 41.5503 -73.6161 240° Southwest 309 356 12,000 -840 Descending Boston Center
12:43PM 41.5000 -73.7333 240° Southwest 272 313 10,900 -1,020 Descending New York TRACON
12:44PM 41.4500 -73.8167 231° Southwest 278 320 9,800 -1,200 Descending New York TRACON
12:45PM 41.3667 -73.8167 180° South 290 334 8,500 -900 Descending New York TRACON
12:46PM 41.3000 -73.7667 151° Southeast 284 327 8,000 -360 Descending New York TRACON
12:47PM 41.2333 -73.7000 143° Southeast 281 323 7,800 -720 Descending New York TRACON
12:48PM 41.1667 -73.6833 169° South 262 302 6,600 -900 Descending New York TRACON
12:49PM 41.1000 -73.6500 159° South 276 318 6,000 -900 Descending New York TRACON
12:51PM 41.0217 -73.7042 217° Southwest  Level Estimated
12:51PM 40.9500 -73.6000 217° Southwest 268 308 4,000  Level New York TRACON
12:52PM 40.8833 -73.5833 169° South 266 306 4,000  Level New York TRACON
12:53PM 40.8333 -73.6500 225° Southwest 255 293 4,000  Level New York TRACON
12:54PM 40.8167 -73.7500 258° West 250 288 4,000  Level New York TRACON
12:55PM 40.8000 -73.8333 255° West 251 289 4,000  Level New York TRACON
12:56PM 40.7667 -73.9167 242° Southwest 239 275 4,000  Level New York TRACON
12:57PM 40.7667 -73.9833 270° West 184 212 4,000  Level New York TRACON
12:58PM 40.7333 -74.0333 229° Southwest 186 214 4,000 -300 Level New York TRACON
12:59PM 40.6833 -74.0667 207° Southwest 183 211 3,500 -540 Descending New York TRACON
01:00PM 40.6333 -74.0667 180° South 200 230 3,000 -360 Descending New York TRACON
01:01PM 40.6500 -74.0000 72° East 191 220 2,900 -120 Descending New York TRACON